Airfield :
LOGIN :

Register | Disclaimer

   EN    FR    IT 

 










Legend :    VFR   Marginal VFR   IFR   Intensive IFR   Very Intensive IFR
Visi :
Ceiling :
>= 8 km
>= 3000ft
5 to 8 km
1000 to 3000 ft
1500m to 5 km
500 to 1000 ft
800 to 1500m
200 to 500 ft
< 800m
< 200 ft
Symbols :   Thunderstorms  Fog  Heavy snow  Heavy precipitations  Wind > 20 kt
SIGMETs :     Misc.  Thunderstorms  Icing  Turbulence  Mountain Waves  Volcanic Ashes






- Airport Elevation : 236 ft
- IATA code : MMX


ESMS - Malmö Sturup

CURRENT METAR :
  • 251820Z 29005KT CAVOK 13/11 Q1030

EXPIRED METARs :
  • 251750Z 30005KT CAVOK 13/11 Q1030
  • 251720Z 34006KT 9999 FEW038 14/11 Q1029
  • 251650Z 31009KT 270V360 9999 -SHRA FEW033 BKN051 15/10 Q1029
  • 251620Z 29008KT 260V320 9999 BKN045 16/10 Q1028
  • 251550Z 29009KT 9999 SCT037 16/11 Q1028

TAF TAF ESMS
Valid from the 25 at 18:00 until the 26 at 18:00 UTC


251704Z 2518/2618 35008KT 9999 SCT030
TEMPO 2519/2524 SHRA BKN035CB
PROB40 2603/2608 0300 FG BKN001



MET'MAP, your aeronautical weather chart ! - Copyright ORBIFLY December 2007 - Disclaimer

ORBIFLY MET'MAP TEAM :

Programming & Development : Alexandra Zaïnal
Concept & original design : Baudouin d'Aumeries
Assistance for programming : Marc-Olivier Méhu
Technical & hardware support : Manuel Goepfert

Contact : metmap@orbifly.com




SOURCES & CREDITS :

   NOAA